createdAt,value
2022-07-29T00:00:08.180Z,415
2022-07-29T00:01:07.196Z,400
2022-07-29T00:02:07.280Z,385
2022-07-29T00:03:08.031Z,388
2022-07-29T00:04:07.771Z,398
2022-07-29T00:05:08.036Z,401
2022-07-29T00:06:07.647Z,405
2022-07-29T00:07:07.592Z,410
2022-07-29T00:08:10.758Z,402
2022-07-29T00:09:07.263Z,394
2022-07-29T00:10:07.907Z,395
2022-07-29T00:11:07.476Z,392
2022-07-29T00:12:07.854Z,402
2022-07-29T00:13:07.724Z,395
2022-07-29T00:14:07.531Z,403
2022-07-29T00:15:07.683Z,385
2022-07-29T00:16:07.288Z,399
2022-07-29T00:17:07.082Z,404
2022-07-29T00:18:07.552Z,395
2022-07-29T00:19:07.792Z,401
2022-07-29T00:20:07.628Z,394
2022-07-29T00:21:07.193Z,395
2022-07-29T00:22:07.301Z,400
2022-07-29T00:23:07.686Z,409
2022-07-29T00:24:07.298Z,414
2022-07-29T00:25:07.880Z,405
2022-07-29T00:27:07.560Z,404
2022-07-29T00:28:07.369Z,401
2022-07-29T00:29:32.329Z,414
2022-07-29T00:30:08.043Z,405
2022-07-29T00:31:07.448Z,408
2022-07-29T00:32:07.538Z,417
2022-07-29T00:33:09.198Z,416
2022-07-29T00:34:07.740Z,411
2022-07-29T00:36:07.414Z,404
2022-07-29T00:37:08.118Z,394
2022-07-29T00:38:07.698Z,396
2022-07-29T00:39:07.499Z,386
2022-07-29T00:40:07.676Z,392
2022-07-29T00:41:07.137Z,408
2022-07-29T00:42:07.948Z,404
2022-07-29T00:43:07.575Z,393
2022-07-29T00:44:07.540Z,408
2022-07-29T00:45:07.524Z,406
2022-07-29T00:47:07.742Z,404
2022-07-29T00:48:07.415Z,400
2022-07-29T00:49:08.323Z,397
2022-07-29T00:50:07.425Z,404
2022-07-29T00:51:08.049Z,413
2022-07-29T00:52:07.482Z,404
2022-07-29T00:53:07.176Z,392
2022-07-29T00:54:07.743Z,398
2022-07-29T00:55:08.763Z,402
2022-07-29T00:56:07.401Z,403
2022-07-29T00:57:07.492Z,402
2022-07-29T00:58:07.099Z,400
2022-07-29T00:59:07.851Z,402
2022-07-29T01:00:08.084Z,425
2022-07-29T01:01:07.748Z,421
2022-07-29T01:02:07.858Z,417
2022-07-29T01:03:07.594Z,416
2022-07-29T01:04:07.405Z,407
2022-07-29T01:05:07.419Z,394
2022-07-29T01:06:07.414Z,397
2022-07-29T01:07:08.123Z,409
2022-07-29T01:08:07.671Z,419
2022-07-29T01:09:08.307Z,418
2022-07-29T01:10:07.860Z,406
2022-07-29T01:11:07.566Z,408
2022-07-29T01:12:07.894Z,412
2022-07-29T01:14:07.357Z,407
2022-07-29T01:15:08.050Z,377
2022-07-29T01:16:07.657Z,397
2022-07-29T01:17:07.563Z,400
2022-07-29T01:18:07.257Z,401
2022-07-29T01:19:07.651Z,407
2022-07-29T01:20:07.548Z,415
2022-07-29T01:21:07.873Z,419
2022-07-29T01:22:07.637Z,424
2022-07-29T01:23:07.264Z,415
2022-07-29T01:24:07.602Z,410
2022-07-29T01:25:07.678Z,409
2022-07-29T01:26:07.240Z,417
2022-07-29T01:27:07.351Z,414
2022-07-29T01:28:07.267Z,411
2022-07-29T01:29:08.195Z,398
2022-07-29T01:30:07.902Z,411
2022-07-29T01:31:07.683Z,403
2022-07-29T01:32:07.551Z,414
2022-07-29T01:33:07.547Z,423
2022-07-29T01:34:07.330Z,417
2022-07-29T01:35:07.735Z,414
2022-07-29T01:36:07.275Z,418
2022-07-29T01:37:07.555Z,411
2022-07-29T01:38:07.112Z,413
2022-07-29T01:39:07.594Z,400
2022-07-29T01:40:07.249Z,395
2022-07-29T01:41:07.600Z,392
2022-07-29T01:42:07.194Z,403
2022-07-29T01:43:08.064Z,410
2022-07-29T01:44:07.721Z,388
2022-07-29T01:45:07.633Z,433
2022-07-29T01:46:07.671Z,407
2022-07-29T01:47:07.418Z,402
2022-07-29T01:48:07.785Z,407
2022-07-29T01:49:07.623Z,413
2022-07-29T01:50:07.818Z,412
2022-07-29T01:51:07.242Z,409
2022-07-29T01:52:07.589Z,400
2022-07-29T01:53:07.215Z,410
2022-07-29T01:54:07.864Z,413
2022-07-29T01:55:07.640Z,414
2022-07-29T01:56:07.415Z,413
2022-07-29T01:57:07.719Z,419
2022-07-29T01:58:07.590Z,421
2022-07-29T01:59:07.175Z,422
2022-07-29T02:00:08.455Z,418
2022-07-29T02:01:07.500Z,445
2022-07-29T02:02:08.093Z,428
2022-07-29T02:03:07.535Z,420
2022-07-29T02:04:07.432Z,415
2022-07-29T02:05:08.164Z,409
2022-07-29T02:06:07.743Z,416
2022-07-29T02:07:07.336Z,411
2022-07-29T02:08:07.615Z,419
2022-07-29T02:09:08.536Z,418
2022-07-29T02:10:07.793Z,408
2022-07-29T02:11:07.295Z,407
2022-07-29T02:12:07.587Z,403
2022-07-29T02:13:07.206Z,420
2022-07-29T02:14:07.738Z,419
2022-07-29T02:15:07.567Z,422
2022-07-29T02:16:07.586Z,403
2022-07-29T02:18:07.965Z,422
2022-07-29T02:19:07.641Z,423
2022-07-29T02:20:07.481Z,419
2022-07-29T02:21:14.914Z,423
2022-07-29T02:23:07.333Z,414
2022-07-29T02:24:07.128Z,413
2022-07-29T02:25:07.798Z,407
2022-07-29T02:26:07.805Z,424
2022-07-29T02:27:07.423Z,426
2022-07-29T02:28:07.887Z,420
2022-07-29T02:29:07.824Z,421
2022-07-29T02:30:07.907Z,399
2022-07-29T02:31:07.575Z,446
2022-07-29T02:32:07.657Z,417
2022-07-29T02:33:07.326Z,416
2022-07-29T02:34:07.826Z,414
2022-07-29T02:35:07.910Z,411
2022-07-29T02:36:07.620Z,421
2022-07-29T02:37:07.354Z,412
2022-07-29T02:38:07.303Z,426
2022-07-29T02:39:07.804Z,417
2022-07-29T02:41:07.751Z,421
2022-07-29T02:42:07.398Z,415
2022-07-29T02:43:07.707Z,412
2022-07-29T02:44:07.407Z,407
2022-07-29T02:45:08.201Z,408
2022-07-29T02:46:12.785Z,412
2022-07-29T02:47:07.207Z,421
2022-07-29T02:48:07.583Z,418
2022-07-29T02:49:07.318Z,423
2022-07-29T02:50:07.106Z,419
2022-07-29T02:51:07.822Z,416
2022-07-29T02:52:07.476Z,417
2022-07-29T02:53:07.793Z,425
2022-07-29T02:54:07.558Z,417
2022-07-29T02:55:08.223Z,413
2022-07-29T02:56:07.692Z,417
2022-07-29T02:57:07.511Z,419
2022-07-29T02:58:07.038Z,414
2022-07-29T02:59:07.806Z,416
2022-07-29T03:00:08.305Z,409
2022-07-29T03:01:07.800Z,406
2022-07-29T03:02:07.603Z,408
2022-07-29T03:03:07.553Z,413
2022-07-29T03:04:07.138Z,406
2022-07-29T03:05:07.688Z,414
2022-07-29T03:06:07.468Z,410
2022-07-29T03:07:07.679Z,408
2022-07-29T03:08:07.273Z,404
2022-07-29T03:09:12.517Z,397
2022-07-29T03:10:07.792Z,408
2022-07-29T03:11:07.541Z,411
2022-07-29T03:12:07.669Z,408
2022-07-29T03:13:07.195Z,411
2022-07-29T03:14:07.726Z,409
2022-07-29T03:15:08.408Z,412
2022-07-29T03:16:08.155Z,411
2022-07-29T03:17:07.930Z,422
2022-07-29T03:18:07.481Z,420
2022-07-29T03:19:08.110Z,426
2022-07-29T03:20:07.646Z,425
2022-07-29T03:21:07.488Z,423
2022-07-29T03:22:08.039Z,418
2022-07-29T03:24:10.556Z,415
2022-07-29T03:25:07.500Z,407
2022-07-29T03:26:07.751Z,411
2022-07-29T03:27:07.537Z,414
2022-07-29T03:28:07.162Z,408
2022-07-29T03:29:07.677Z,414
2022-07-29T03:30:08.307Z,400
2022-07-29T03:31:07.756Z,394
2022-07-29T03:32:08.682Z,391
2022-07-29T03:33:13.277Z,382
2022-07-29T03:34:07.652Z,426
2022-07-29T03:35:07.782Z,413
2022-07-29T03:36:07.479Z,403
2022-07-29T03:37:07.597Z,397
2022-07-29T03:38:07.139Z,403
2022-07-29T03:39:08.038Z,400
2022-07-29T03:40:08.073Z,407
2022-07-29T03:42:07.804Z,403
2022-07-29T03:43:07.652Z,404
2022-07-29T03:44:07.368Z,392
2022-07-29T03:45:07.320Z,395
2022-07-29T03:46:07.830Z,405
2022-07-29T03:47:07.297Z,403
2022-07-29T03:48:07.770Z,392
2022-07-29T03:49:07.519Z,405
2022-07-29T03:50:07.578Z,399
2022-07-29T03:51:07.502Z,403
2022-07-29T03:52:07.331Z,408
2022-07-29T03:53:08.062Z,407
2022-07-29T03:54:10.199Z,404
2022-07-29T03:55:07.682Z,396
2022-07-29T03:56:07.523Z,400
2022-07-29T03:57:08.026Z,401
2022-07-29T03:58:07.653Z,398
2022-07-29T03:59:07.120Z,401
2022-07-29T04:00:08.409Z,407
2022-07-29T04:01:07.548Z,411
2022-07-29T04:02:07.505Z,401
2022-07-29T04:03:10.589Z,395
2022-07-29T04:04:07.038Z,401
2022-07-29T04:05:08.080Z,403
2022-07-29T04:06:07.802Z,375
2022-07-29T04:07:07.566Z,391
2022-07-29T04:08:07.756Z,400
2022-07-29T04:09:09.906Z,398
2022-07-29T04:10:07.456Z,396
2022-07-29T04:12:07.819Z,400
2022-07-29T04:13:07.638Z,403
2022-07-29T04:14:07.739Z,408
2022-07-29T04:15:07.852Z,393
2022-07-29T04:16:07.799Z,383
2022-07-29T04:17:07.549Z,389
2022-07-29T04:18:07.202Z,391
2022-07-29T04:19:07.720Z,401
2022-07-29T04:20:07.548Z,409
2022-07-29T04:22:07.284Z,396
2022-07-29T04:23:07.955Z,402
2022-07-29T04:24:07.628Z,403
2022-07-29T04:25:07.693Z,401
2022-07-29T04:26:07.510Z,407
2022-07-29T04:29:07.864Z,405
2022-07-29T04:30:07.782Z,401
2022-07-29T04:31:07.565Z,409
2022-07-29T04:32:07.470Z,400
2022-07-29T04:33:07.195Z,392
2022-07-29T04:34:07.563Z,389
2022-07-29T04:35:07.782Z,378
2022-07-29T04:36:07.606Z,376
2022-07-29T04:37:07.608Z,419
2022-07-29T04:38:07.398Z,378
2022-07-29T04:39:07.398Z,376
2022-07-29T04:40:08.165Z,384
2022-07-29T04:41:07.736Z,386
2022-07-29T04:42:07.546Z,390
2022-07-29T04:43:07.510Z,382
2022-07-29T04:44:07.523Z,380
2022-07-29T04:45:07.648Z,381
2022-07-29T04:46:07.819Z,378
2022-07-29T04:47:07.493Z,397
2022-07-29T04:48:07.345Z,395
2022-07-29T04:49:07.197Z,390
2022-07-29T04:50:07.557Z,397
2022-07-29T04:51:07.938Z,382
2022-07-29T04:52:07.435Z,386
2022-07-29T04:53:07.406Z,389
2022-07-29T04:54:07.216Z,374
2022-07-29T04:55:07.866Z,377
2022-07-29T04:56:08.065Z,381
2022-07-29T04:57:07.687Z,385
2022-07-29T04:58:07.671Z,381
2022-07-29T04:59:07.333Z,387
2022-07-29T05:00:08.417Z,377
2022-07-29T05:02:07.953Z,392
2022-07-29T05:03:07.703Z,393
2022-07-29T05:04:07.727Z,388
2022-07-29T05:05:08.070Z,387
2022-07-29T05:06:07.423Z,393
2022-07-29T05:07:07.390Z,385
2022-07-29T05:09:07.998Z,374
2022-07-29T05:10:07.875Z,404
2022-07-29T05:11:12.196Z,387
2022-07-29T05:13:07.757Z,370
2022-07-29T05:14:07.474Z,364
2022-07-29T05:15:08.311Z,370
2022-07-29T05:16:08.033Z,385
2022-07-29T05:17:08.100Z,386
2022-07-29T05:18:07.219Z,383
2022-07-29T05:19:10.933Z,381
2022-07-29T05:20:08.136Z,382
2022-07-29T05:21:07.916Z,386
2022-07-29T05:22:07.677Z,388
2022-07-29T05:23:07.347Z,384
2022-07-29T05:24:08.054Z,387
2022-07-29T05:25:09.255Z,389
2022-07-29T05:26:07.889Z,386
2022-07-29T05:27:07.717Z,367
2022-07-29T05:28:07.653Z,384
2022-07-29T05:29:07.568Z,383
2022-07-29T05:30:07.669Z,378
2022-07-29T05:31:07.783Z,374
2022-07-29T05:32:07.676Z,381
2022-07-29T05:33:07.489Z,378
2022-07-29T05:34:07.883Z,386
2022-07-29T05:35:08.008Z,384
2022-07-29T05:36:08.215Z,376
2022-07-29T05:37:07.906Z,375
2022-07-29T05:38:07.732Z,382
2022-07-29T05:39:07.710Z,374
2022-07-29T05:40:07.794Z,381
2022-07-29T05:41:07.753Z,385
2022-07-29T05:42:07.599Z,388
2022-07-29T05:43:08.139Z,382
2022-07-29T05:44:07.937Z,378
2022-07-29T05:45:07.792Z,367
2022-07-29T05:46:07.775Z,361
2022-07-29T05:47:07.908Z,368
2022-07-29T05:48:07.623Z,375
2022-07-29T05:49:07.587Z,376
2022-07-29T05:50:08.191Z,371
2022-07-29T05:51:08.074Z,376
2022-07-29T05:52:07.947Z,369
2022-07-29T05:53:19.084Z,377
2022-07-29T05:54:08.328Z,397
2022-07-29T05:55:08.193Z,386
2022-07-29T05:56:07.930Z,385
2022-07-29T05:58:07.551Z,374
2022-07-29T05:59:18.195Z,399
2022-07-29T06:00:09.167Z,377
2022-07-29T06:02:07.834Z,371
2022-07-29T06:03:07.579Z,380
2022-07-29T06:04:07.566Z,376
2022-07-29T06:06:07.506Z,381
2022-07-29T06:07:07.257Z,376
2022-07-29T06:08:07.748Z,375
2022-07-29T06:09:12.729Z,374
2022-07-29T06:10:07.887Z,377
2022-07-29T06:12:07.726Z,380
2022-07-29T06:13:07.537Z,375
2022-07-29T06:14:07.265Z,380
2022-07-29T06:15:08.183Z,367
2022-07-29T06:16:08.161Z,355
2022-07-29T06:17:08.139Z,365
2022-07-29T06:18:08.000Z,363
2022-07-29T06:19:08.154Z,371
2022-07-29T06:20:07.905Z,375
2022-07-29T06:21:07.800Z,376
2022-07-29T06:22:07.665Z,380
2022-07-29T06:23:07.333Z,385
2022-07-29T06:24:07.518Z,367
2022-07-29T06:25:07.690Z,370
2022-07-29T06:26:07.733Z,373
2022-07-29T06:27:07.780Z,362
2022-07-29T06:28:07.582Z,380
2022-07-29T06:29:07.505Z,385
2022-07-29T06:30:08.289Z,393
2022-07-29T06:31:08.079Z,396
2022-07-29T06:32:07.371Z,380
2022-07-29T06:33:08.073Z,369
2022-07-29T06:34:08.051Z,367
2022-07-29T06:35:37.917Z,356
2022-07-29T06:36:08.136Z,361
2022-07-29T06:37:07.647Z,373
2022-07-29T06:38:29.971Z,380
2022-07-29T06:40:07.732Z,369
2022-07-29T06:41:07.940Z,375
2022-07-29T06:42:07.757Z,365
2022-07-29T06:43:07.359Z,363
2022-07-29T06:44:07.858Z,366
2022-07-29T06:45:09.462Z,380
2022-07-29T06:46:07.536Z,394
2022-07-29T06:47:07.388Z,360
2022-07-29T06:48:07.470Z,394
2022-07-29T06:49:07.655Z,372
2022-07-29T06:52:07.969Z,366
2022-07-29T06:53:08.082Z,370
2022-07-29T06:54:07.769Z,384
2022-07-29T06:55:07.595Z,374
2022-07-29T06:57:07.778Z,378
2022-07-29T06:58:07.553Z,381
2022-07-29T06:59:07.632Z,384
2022-07-29T07:00:08.551Z,383
2022-07-29T07:01:07.480Z,374
2022-07-29T07:02:13.159Z,366
2022-07-29T07:03:07.501Z,355
2022-07-29T07:04:13.340Z,369
2022-07-29T07:05:08.302Z,360
2022-07-29T07:06:11.914Z,369
2022-07-29T07:07:07.905Z,374
2022-07-29T07:08:07.563Z,372
2022-07-29T07:09:07.368Z,371
2022-07-29T07:10:08.033Z,368
2022-07-29T07:11:07.657Z,378
2022-07-29T07:12:07.345Z,371
2022-07-29T07:13:07.499Z,376
2022-07-29T07:14:07.432Z,390
2022-07-29T07:15:07.897Z,381
2022-07-29T07:16:07.446Z,387
2022-07-29T07:17:07.538Z,379
2022-07-29T07:18:07.444Z,381
2022-07-29T07:19:07.343Z,378
2022-07-29T07:20:07.743Z,371
2022-07-29T07:22:08.059Z,366
2022-07-29T07:23:07.812Z,363
2022-07-29T07:24:07.889Z,362
2022-07-29T07:25:08.096Z,363
2022-07-29T07:26:07.911Z,374
2022-07-29T07:27:07.452Z,376
2022-07-29T07:28:07.406Z,380
2022-07-29T07:29:07.370Z,382
2022-07-29T07:30:08.474Z,377
2022-07-29T07:31:07.449Z,374
2022-07-29T07:32:07.758Z,390
2022-07-29T07:33:07.822Z,387
2022-07-29T07:34:07.714Z,384
2022-07-29T07:35:07.990Z,372
2022-07-29T07:36:07.744Z,377
2022-07-29T07:37:07.550Z,361
2022-07-29T07:38:07.192Z,372
2022-07-29T07:39:08.368Z,383
2022-07-29T07:41:08.141Z,389
2022-07-29T07:42:08.250Z,378
2022-07-29T07:43:07.925Z,385
2022-07-29T07:44:09.275Z,375
2022-07-29T07:45:13.246Z,376
2022-07-29T07:46:08.182Z,378
2022-07-29T07:47:12.207Z,379
2022-07-29T07:48:07.272Z,383
2022-07-29T07:49:08.079Z,385
2022-07-29T07:50:08.279Z,390
2022-07-29T07:52:08.108Z,377
2022-07-29T07:53:08.053Z,411
2022-07-29T07:54:07.870Z,407
2022-07-29T07:55:07.817Z,396
2022-07-29T07:56:12.107Z,383
2022-07-29T07:58:07.543Z,375
2022-07-29T07:59:07.382Z,373
2022-07-29T08:00:08.562Z,369
2022-07-29T08:01:07.795Z,364
2022-07-29T08:02:07.885Z,373
2022-07-29T08:03:09.818Z,370
2022-07-29T08:04:07.608Z,377
2022-07-29T08:05:07.847Z,387
2022-07-29T08:06:07.870Z,390
2022-07-29T08:07:07.850Z,376
2022-07-29T08:08:07.617Z,387
2022-07-29T08:09:27.712Z,373
2022-07-29T08:10:08.050Z,369
2022-07-29T08:11:09.867Z,374
2022-07-29T08:12:07.705Z,393
2022-07-29T08:13:07.762Z,389
2022-07-29T08:14:07.923Z,381
2022-07-29T08:15:08.604Z,375
2022-07-29T08:16:07.499Z,378
2022-07-29T08:17:07.568Z,373
2022-07-29T08:18:08.901Z,384
2022-07-29T08:19:07.738Z,388
2022-07-29T08:20:07.789Z,398
2022-07-29T08:21:08.035Z,384
2022-07-29T08:22:07.740Z,398
2022-07-29T08:24:07.503Z,385
2022-07-29T08:25:08.393Z,382
2022-07-29T08:26:08.011Z,391
2022-07-29T08:27:26.933Z,403
2022-07-29T08:28:08.010Z,390
2022-07-29T08:29:07.644Z,386
2022-07-29T08:30:08.136Z,385
2022-07-29T08:31:07.952Z,382
2022-07-29T08:32:07.961Z,391
2022-07-29T08:33:07.983Z,404
2022-07-29T08:34:07.883Z,399
2022-07-29T08:35:07.730Z,398
2022-07-29T08:36:07.562Z,381
2022-07-29T08:37:07.681Z,385
2022-07-29T08:38:07.629Z,386
2022-07-29T08:39:07.800Z,402
2022-07-29T08:40:07.970Z,392
2022-07-29T08:41:07.597Z,393
2022-07-29T08:43:07.585Z,402
2022-07-29T08:44:07.602Z,401
2022-07-29T08:45:07.678Z,402
2022-07-29T08:46:07.662Z,410
2022-07-29T08:47:07.589Z,408
2022-07-29T08:48:07.498Z,400
2022-07-29T08:49:07.304Z,398
2022-07-29T08:50:08.367Z,392
2022-07-29T08:51:08.130Z,387
2022-07-29T08:52:07.757Z,389
2022-07-29T08:53:07.564Z,385
2022-07-29T08:54:07.768Z,396
2022-07-29T08:55:07.597Z,375
2022-07-29T08:56:07.640Z,393
2022-07-29T08:57:07.434Z,405
2022-07-29T08:58:07.839Z,394
2022-07-29T08:59:07.647Z,388
2022-07-29T09:00:11.758Z,389
2022-07-29T09:01:12.212Z,395
2022-07-29T09:02:07.762Z,404
2022-07-29T09:03:07.415Z,396
2022-07-29T09:04:07.588Z,388
2022-07-29T09:05:07.613Z,390
2022-07-29T09:06:07.611Z,402
2022-07-29T09:07:07.934Z,397
2022-07-29T09:08:07.644Z,393
2022-07-29T09:09:07.693Z,384
2022-07-29T09:10:07.664Z,389
2022-07-29T09:11:07.829Z,376
2022-07-29T09:12:07.834Z,371
2022-07-29T09:13:08.090Z,367
2022-07-29T09:14:07.742Z,365
2022-07-29T09:15:08.514Z,370
2022-07-29T09:16:09.620Z,377
2022-07-29T09:17:08.053Z,373
2022-07-29T09:18:08.244Z,393
2022-07-29T09:19:07.842Z,385
2022-07-29T09:20:08.146Z,386
2022-07-29T09:21:08.089Z,381
2022-07-29T09:22:07.890Z,388
2022-07-29T09:23:08.177Z,375
2022-07-29T09:24:07.701Z,377
2022-07-29T09:25:08.230Z,393
2022-07-29T09:26:07.847Z,387
2022-07-29T09:27:13.478Z,388
2022-07-29T09:28:07.497Z,383
2022-07-29T09:29:07.542Z,370
2022-07-29T09:30:07.656Z,367
2022-07-29T09:31:07.837Z,376
2022-07-29T09:32:08.127Z,371
2022-07-29T09:33:07.816Z,381
2022-07-29T09:34:07.494Z,376
2022-07-29T09:35:07.617Z,365
2022-07-29T09:36:07.605Z,356
2022-07-29T09:37:07.730Z,371
2022-07-29T09:38:07.476Z,366
2022-07-29T09:39:07.487Z,368
2022-07-29T09:40:11.675Z,369
2022-07-29T09:41:08.340Z,353
2022-07-29T09:42:08.023Z,361
2022-07-29T09:43:07.874Z,373
2022-07-29T09:44:07.883Z,371
2022-07-29T09:45:08.032Z,373
2022-07-29T09:46:12.067Z,374
2022-07-29T09:47:07.497Z,377
2022-07-29T09:48:07.597Z,380
2022-07-29T09:49:07.844Z,375
2022-07-29T09:50:08.439Z,379
2022-07-29T09:51:08.381Z,356
2022-07-29T09:52:08.045Z,367
2022-07-29T09:53:08.048Z,373
2022-07-29T09:54:07.790Z,368
2022-07-29T09:55:07.972Z,356
2022-07-29T09:56:07.732Z,363
2022-07-29T09:57:07.957Z,368
2022-07-29T09:58:08.016Z,372
2022-07-29T09:59:08.038Z,371
2022-07-29T10:00:09.209Z,378
2022-07-29T10:01:08.235Z,373
2022-07-29T10:02:07.727Z,372
2022-07-29T10:03:08.504Z,356
2022-07-29T10:04:07.683Z,379
2022-07-29T10:05:07.700Z,380
2022-07-29T10:06:07.747Z,384
2022-07-29T10:07:07.458Z,369
2022-07-29T10:08:08.089Z,366
2022-07-29T10:09:08.136Z,363
2022-07-29T10:10:08.238Z,359
2022-07-29T10:11:07.944Z,367
2022-07-29T10:13:12.075Z,369
2022-07-29T10:14:07.987Z,366
2022-07-29T10:15:08.154Z,361
2022-07-29T10:16:08.010Z,350
2022-07-29T10:17:08.055Z,356
2022-07-29T10:18:07.766Z,351
2022-07-29T10:19:07.642Z,368
2022-07-29T10:20:07.553Z,367
2022-07-29T10:21:07.939Z,373
2022-07-29T10:22:08.093Z,372
2022-07-29T10:23:07.737Z,366
2022-07-29T10:24:07.459Z,353
2022-07-29T10:25:08.682Z,362
2022-07-29T10:26:07.753Z,376
2022-07-29T10:28:07.580Z,370
2022-07-29T10:29:07.631Z,358
2022-07-29T10:30:07.837Z,356
2022-07-29T10:31:07.801Z,363
2022-07-29T10:32:07.899Z,361
2022-07-29T10:33:08.554Z,372
2022-07-29T10:34:07.460Z,380
2022-07-29T10:36:07.782Z,368
2022-07-29T10:37:07.587Z,372
2022-07-29T10:38:07.784Z,368
2022-07-29T10:39:07.810Z,370
2022-07-29T10:40:08.350Z,380
2022-07-29T10:41:08.595Z,372
2022-07-29T10:42:07.705Z,364
2022-07-29T10:43:07.760Z,356
2022-07-29T10:44:07.921Z,355
2022-07-29T10:45:07.873Z,363
2022-07-29T10:46:07.653Z,365
2022-07-29T10:47:07.685Z,362
2022-07-29T10:48:08.011Z,366
2022-07-29T10:49:08.358Z,377
2022-07-29T10:50:08.450Z,362
2022-07-29T10:51:07.871Z,354
2022-07-29T10:52:08.174Z,356
2022-07-29T10:53:08.879Z,354
2022-07-29T10:54:07.664Z,365
2022-07-29T10:55:08.280Z,374
2022-07-29T10:56:07.996Z,368
2022-07-29T10:57:08.013Z,369
2022-07-29T10:58:08.087Z,365
2022-07-29T10:59:07.996Z,356
2022-07-29T11:00:08.779Z,354
2022-07-29T11:01:08.011Z,358
2022-07-29T11:02:35.506Z,359
2022-07-29T11:03:08.577Z,361
2022-07-29T11:04:08.176Z,348
2022-07-29T11:05:07.994Z,346
2022-07-29T11:06:08.811Z,355
2022-07-29T11:07:07.586Z,357
2022-07-29T11:09:07.724Z,354
2022-07-29T11:10:07.891Z,358
2022-07-29T11:11:08.210Z,362
2022-07-29T11:12:07.750Z,341
2022-07-29T11:13:07.730Z,352
2022-07-29T11:14:10.133Z,340
2022-07-29T11:15:07.860Z,347
2022-07-29T11:16:08.096Z,343
2022-07-29T11:17:07.788Z,344
2022-07-29T11:18:07.554Z,345
2022-07-29T11:19:07.684Z,347
2022-07-29T11:21:08.247Z,356
2022-07-29T11:22:07.667Z,353
2022-07-29T11:23:08.015Z,351
2022-07-29T11:24:07.215Z,342
2022-07-29T11:25:07.831Z,330
2022-07-29T11:26:07.552Z,341
2022-07-29T11:27:08.513Z,355
2022-07-29T11:28:07.598Z,366
2022-07-29T11:29:07.378Z,357
2022-07-29T11:30:08.028Z,360
2022-07-29T11:32:07.904Z,352
2022-07-29T11:33:07.521Z,356
2022-07-29T11:35:17.800Z,354
2022-07-29T11:36:07.706Z,350
2022-07-29T11:37:08.374Z,356
2022-07-29T11:38:07.584Z,359
2022-07-29T11:39:08.892Z,347
2022-07-29T11:40:07.810Z,353
2022-07-29T11:42:07.991Z,351
2022-07-29T11:43:07.813Z,350
2022-07-29T11:44:08.906Z,351
2022-07-29T11:45:41.902Z,354
2022-07-29T11:46:07.609Z,356
2022-07-29T11:47:07.639Z,359
2022-07-29T11:48:29.686Z,354
2022-07-29T11:49:09.270Z,358
2022-07-29T11:50:10.347Z,368
2022-07-29T11:51:07.516Z,372
2022-07-29T11:52:07.441Z,350
2022-07-29T11:53:08.765Z,354
2022-07-29T11:54:07.915Z,355
2022-07-29T11:55:09.771Z,351
2022-07-29T11:56:07.756Z,355
2022-07-29T11:57:07.461Z,345
2022-07-29T11:58:07.503Z,350
2022-07-29T11:59:08.405Z,354
2022-07-29T12:00:09.462Z,356
2022-07-29T12:01:07.917Z,348
2022-07-29T12:03:07.663Z,344
2022-07-29T12:04:07.885Z,325
2022-07-29T12:05:10.728Z,357
2022-07-29T12:06:07.463Z,343
2022-07-29T12:07:08.815Z,342
2022-07-29T12:08:08.031Z,343
2022-07-29T12:09:07.687Z,351
2022-07-29T12:10:11.308Z,350
2022-07-29T12:11:08.159Z,358
2022-07-29T12:12:07.818Z,362
2022-07-29T12:13:07.540Z,364
2022-07-29T12:14:07.582Z,357
2022-07-29T12:15:08.369Z,338
2022-07-29T12:16:07.922Z,342
2022-07-29T12:17:08.297Z,354
2022-07-29T12:18:08.019Z,350
2022-07-29T12:20:07.628Z,355
2022-07-29T12:21:07.936Z,366
2022-07-29T12:22:07.989Z,364
2022-07-29T12:23:08.079Z,354
2022-07-29T12:24:26.814Z,357
2022-07-29T12:25:32.125Z,363
2022-07-29T12:26:10.685Z,351
2022-07-29T12:27:08.011Z,352
2022-07-29T12:28:07.567Z,353
2022-07-29T12:29:11.249Z,346
2022-07-29T12:30:08.115Z,324
2022-07-29T12:31:08.166Z,358
2022-07-29T12:32:14.728Z,344
2022-07-29T12:34:08.184Z,352
2022-07-29T12:35:08.267Z,353
2022-07-29T12:37:07.441Z,346
2022-07-29T12:38:07.844Z,345
2022-07-29T12:39:07.944Z,351
2022-07-29T12:41:08.094Z,341
2022-07-29T12:42:13.586Z,346
2022-07-29T12:43:07.127Z,359
2022-07-29T12:44:08.407Z,352
2022-07-29T12:45:08.168Z,360
2022-07-29T12:46:08.102Z,351
2022-07-29T12:47:08.117Z,348
2022-07-29T12:48:08.433Z,354
2022-07-29T12:49:07.461Z,362
2022-07-29T12:50:07.603Z,349
2022-07-29T12:51:07.708Z,350
2022-07-29T12:52:07.774Z,358
2022-07-29T12:53:07.701Z,360
2022-07-29T12:54:07.534Z,364
2022-07-29T12:55:08.126Z,355
2022-07-29T12:56:26.637Z,330
2022-07-29T12:57:07.702Z,397
2022-07-29T12:58:08.074Z,386
2022-07-29T12:59:07.921Z,360
2022-07-29T13:00:08.845Z,352
2022-07-29T13:01:07.815Z,368
2022-07-29T13:02:07.729Z,367
2022-07-29T13:03:08.135Z,364
2022-07-29T13:04:07.425Z,367
2022-07-29T13:05:07.784Z,382
2022-07-29T13:06:07.666Z,379
2022-07-29T13:07:07.666Z,371
2022-07-29T13:08:08.489Z,372
2022-07-29T13:09:07.729Z,358
2022-07-29T13:10:08.213Z,362
2022-07-29T13:11:08.008Z,374
2022-07-29T13:12:08.513Z,365
2022-07-29T13:13:07.374Z,354
2022-07-29T13:14:07.789Z,360
2022-07-29T13:15:08.188Z,354
2022-07-29T13:16:08.167Z,357
2022-07-29T13:17:08.085Z,374
2022-07-29T13:18:07.946Z,373
2022-07-29T13:19:08.214Z,354
2022-07-29T13:20:08.848Z,347
2022-07-29T13:21:07.703Z,330
2022-07-29T13:22:08.014Z,377
2022-07-29T13:23:07.808Z,363
2022-07-29T13:24:07.656Z,348
2022-07-29T13:25:08.070Z,352
2022-07-29T13:26:07.786Z,373
2022-07-29T13:27:07.947Z,382
2022-07-29T13:28:07.931Z,373
2022-07-29T13:29:07.813Z,368
2022-07-29T13:30:08.164Z,366
2022-07-29T13:31:08.139Z,364
2022-07-29T13:32:08.272Z,350
2022-07-29T13:33:08.102Z,346
2022-07-29T13:34:07.221Z,359
2022-07-29T13:35:08.686Z,412
2022-07-29T13:36:07.603Z,392
2022-07-29T13:37:07.728Z,367
2022-07-29T13:38:07.797Z,369
2022-07-29T13:39:08.130Z,378
2022-07-29T13:40:08.217Z,379
2022-07-29T13:41:07.505Z,374
2022-07-29T13:42:10.778Z,366
2022-07-29T13:43:08.153Z,361
2022-07-29T13:44:08.024Z,368
2022-07-29T13:45:08.162Z,375
2022-07-29T13:46:07.989Z,358
2022-07-29T13:47:08.094Z,364
2022-07-29T13:48:07.964Z,384
2022-07-29T13:49:07.860Z,373
2022-07-29T13:50:08.098Z,376
2022-07-29T13:51:07.936Z,372
2022-07-29T13:53:07.648Z,370
2022-07-29T13:54:07.351Z,384
2022-07-29T13:55:08.516Z,382
2022-07-29T13:56:07.737Z,379
2022-07-29T13:57:07.783Z,374
2022-07-29T13:58:07.817Z,385
2022-07-29T13:59:07.653Z,395
2022-07-29T14:00:08.602Z,392
2022-07-29T14:01:07.748Z,389
2022-07-29T14:02:07.788Z,369
2022-07-29T14:03:07.891Z,366
2022-07-29T14:04:07.973Z,372
2022-07-29T14:05:08.526Z,375
2022-07-29T14:07:07.576Z,362
2022-07-29T14:08:07.893Z,374
2022-07-29T14:09:07.746Z,379
2022-07-29T14:10:08.134Z,373
2022-07-29T14:11:07.208Z,385
2022-07-29T14:12:07.238Z,374
2022-07-29T14:13:24.672Z,385
2022-07-29T14:14:08.082Z,377
2022-07-29T14:15:13.119Z,371
2022-07-29T14:16:07.657Z,374
2022-07-29T14:17:08.060Z,377
2022-07-29T14:18:08.018Z,366
2022-07-29T14:19:07.825Z,354
2022-07-29T14:20:08.153Z,359
2022-07-29T14:21:07.819Z,369
2022-07-29T14:22:08.534Z,339
2022-07-29T14:23:07.986Z,375
2022-07-29T14:24:17.092Z,359
2022-07-29T14:25:15.126Z,362
2022-07-29T14:26:09.272Z,360
2022-07-29T14:27:07.748Z,356
2022-07-29T14:28:07.930Z,374
2022-07-29T14:29:07.954Z,375
2022-07-29T14:30:07.981Z,373
2022-07-29T14:31:08.070Z,362